WMKJ/JHB METAR and TAF weather

Enter ICAO airport designator
Station Type Date Time Source
WMKJ METAR 2021/07/30 22:00 UTC NOAA

WMKJ 302200Z 00000KT 7000 FEW010 FEW016CB 25/24 Q1010


Station Type Date Time Source
WMKJ Decoded METAR 2021/07/30 22:00 UTC NOAA

Johore Bharu / Senai, Malaysia (WMKJ) 01-38N 103-40E 40M
Jul 30, 2021 - 06:00 PM EDT / 2021.07.30 2200 UTC
Wind: Calm:0
Visibility: 4 mile(s):0
Sky conditions: mostly clear
Weather: Cumulonimbus clouds observed
Temperature: 77 F (25 C)
Dew Point: 75 F (24 C)
Relative Humidity: 94%
Pressure (altimeter): 29.83 in. Hg (1010 hPa)
ob: WMKJ 302200Z 00000KT 7000 FEW010 FEW016CB 25/24 Q1010
cycle: 22

Station Type Date Time Source
WMKJ TAF 2021/07/30 18:13 UTC NOAA

TAF WMKJ 301700Z 3018/3118 VRB02KT 8000 FEW020
TEMPO 3023/3103 24006KT 4000 TSRA FEW017CB SCT018

Example: see airport list